Ship Status Report: callsign 6YRX8

sailwx.info

Track history (hours):
 
Tides and Currents Weather Stations Pressure Air Temp Water Temp Dewpoint Dewpoint Depression Visibility Wind Speed Wind Dir Waves Ship Positions

Callsign 6YRX8 (name unknown)

Last reported at 2017-Nov-19 20:26 UTC. Time now 2017-Nov-22 21:45 UTC.
Position N 25°41' W 080°06'.

Date/timePositionNaut miles runAvg speedWind from/ knotsBaromVisibWave heightAir tempDewpointWater temp
2017-Nov-19 20:26N 25°41' W 080°06'512.4
2017-Nov-19 20:00N 25°46' W 080°08'1 1.1
2017-Nov-19 19:30N 25°45' W 080°08'0 0.0
2017-Nov-19 19:00N 25°45' W 080°08'0 0.0
2017-Nov-19 18:30N 25°45' W 080°08'0 0.0
2017-Nov-19 18:00N 25°45' W 080°08'0 0.0
2017-Nov-19 17:30N 25°45' W 080°08'0 0.0
2017-Nov-19 17:00N 25°45' W 080°08'0 0.8
2017-Nov-19 16:30N 25°46' W 080°09'6 9.6
2017-Nov-19 15:54N 25°51' W 080°06'5 9.8
2017-Nov-19 15:25N 25°56' W 080°08'3 6.1
2017-Nov-19 14:54N 25°59' W 080°08'0 0.2
2017-Nov-19 13:40N 25°59' W 080°08'0 0.0
2017-Nov-19 13:22N 25°59' W 080°08'0 0.0
2017-Nov-19 12:52N 25°59' W 080°08'0 0.0
2017-Nov-19 12:22N 25°59' W 080°08'0 0.0
2017-Nov-19 11:40N 25°59' W 080°08'0 0.0
2017-Nov-19 11:22N 25°59' W 080°08'0 0.0
2017-Nov-19 10:52N 25°59' W 080°08'  
2017-Nov-16 10:28N 34°43' W 076°42'5 0.2
2017-Nov-15 09:30N 34°48' W 076°41'0 0.0
2017-Nov-14 19:00N 34°48' W 076°41'0 0.0
2017-Nov-14 01:30N 34°48' W 076°41'5 0.2
2017-Nov-13 01:58N 34°43' W 076°42'0 0.0
2017-Nov-13 01:28N 34°43' W 076°42'554224.0
2017-Nov-12 23:00N 25°59' W 080°08'0 0.0
2017-Nov-12 22:30N 25°59' W 080°08'0 0.0
2017-Nov-12 21:57N 25°59' W 080°08'0 0.0
2017-Nov-12 21:30N 25°59' W 080°08'0 0.0
2017-Nov-12 21:00N 25°59' W 080°08'0 0.0
2017-Nov-12 20:30N 25°59' W 080°08'1 0.1
2017-Nov-12 02:11N 25°57' W 080°08'1 6.9
2017-Nov-12 01:59N 25°56' W 080°08'0 0.0
2017-Nov-12 01:28N 25°56' W 080°08'3 5.8
2017-Nov-12 01:00N 25°54' W 080°06'612.2
2017-Nov-12 00:30N 25°47' W 080°07'2 4.5
2017-Nov-12 00:00N 25°47' W 080°09'0 0.0
2017-Nov-11 23:30N 25°47' W 080°09'0 0.0
2017-Nov-11 23:00N 25°47' W 080°09'0 0.0
2017-Nov-11 22:30N 25°47' W 080°09'0 0.0
2017-Nov-11 22:00N 25°47' W 080°09'0 0.0
2017-Nov-11 21:30N 25°47' W 080°09'7 6.8
2017-Nov-11 20:29N 25°53' W 080°07'3 5.0
2017-Nov-11 19:56N 25°56' W 080°08'0 0.0
2017-Nov-11 19:14N 25°56' W 080°08'0 0.0
2017-Nov-11 18:56N 25°56' W 080°08'0 0.0
2017-Nov-11 18:29N 25°56' W 080°08'1 1.2
2017-Nov-11 18:00N 25°57' W 080°08'2 3.3
2017-Nov-11 17:21N 25°59' W 080°08'0 0.0
2017-Nov-11 16:54N 25°59' W 080°08'0 0.0
2017-Nov-11 16:24N 25°59' W 080°08'0 0.0
2017-Nov-11 15:54N 25°59' W 080°08'0 0.0
2017-Nov-11 15:24N 25°59' W 080°08'0 0.0
2017-Nov-11 14:57N 25°59' W 080°08'0 0.0
2017-Nov-11 14:27N 25°59' W 080°08'0 0.0
2017-Nov-11 13:54N 25°59' W 080°08'0 0.0
2017-Nov-11 13:27N 25°59' W 080°08'0 0.0
2017-Nov-11 12:57N 25°59' W 080°08'0 0.0
2017-Nov-11 12:30N 25°59' W 080°08'0 0.0
2017-Nov-11 12:00N 25°59' W 080°08'84273.7
2017-Nov-11 00:35N 39°32' W 075°49'19 5.2
2017-Nov-10 21:00N 39°23' W 075°28'8381661.0
2017-Nov-10 20:30N 25°59' W 080°08'0 0.0
2017-Nov-10 20:00N 25°59' W 080°08'0 0.0
2017-Nov-10 19:27N 25°59' W 080°08'0 0.0
2017-Nov-10 18:57N 25°59' W 080°08'0 0.0
2017-Nov-10 18:30N 25°59' W 080°08'0 0.0
2017-Nov-10 18:00N 25°59' W 080°08'0 0.0
2017-Nov-10 17:30N 25°59' W 080°08'0 0.0
2017-Nov-10 17:00N 25°59' W 080°08'0 0.0
2017-Nov-10 16:30N 25°59' W 080°08'0 0.0
2017-Nov-10 16:00N 25°59' W 080°08'0 0.0
2017-Nov-10 15:21N 25°59' W 080°08'0 0.0
2017-Nov-10 14:51N 25°59' W 080°08'0 0.0
2017-Nov-10 14:21N 25°59' W 080°08'0 0.0
2017-Nov-10 13:51N 25°59' W 080°08'1 1.1
2017-Nov-10 13:21N 25°58' W 080°08'1 1.2
2017-Nov-10 12:54N 25°59' W 080°08'0 0.0
2017-Nov-10 12:24N 25°59' W 080°08'0 0.0
2017-Nov-10 11:54N 25°59' W 080°08'0 0.0
2017-Nov-10 11:27N 25°59' W 080°08'0 0.0
2017-Nov-10 10:57N 25°59' W 080°08'0 0.0
2017-Nov-10 10:24N 25°59' W 080°08'0 0.0
2017-Nov-10 09:57N 25°59' W 080°08'0 0.0
2017-Nov-10 09:27N 25°59' W 080°08'0 0.0
2017-Nov-10 08:57N 25°59' W 080°08'0 0.0
2017-Nov-10 08:27N 25°59' W 080°08'0 0.0
2017-Nov-10 08:00N 25°59' W 080°08'0 0.0
2017-Nov-10 07:30N 25°59' W 080°08'0 0.0
2017-Nov-10 07:00N 25°59' W 080°08'0 0.0
2017-Nov-10 06:30N 25°59' W 080°08'0 0.0
2017-Nov-10 06:00N 25°59' W 080°08'0 0.0
2017-Nov-10 05:30N 25°59' W 080°08'0 0.0
2017-Nov-10 05:00N 25°59' W 080°08'0 0.0
2017-Nov-10 04:30N 25°59' W 080°08'0 0.0
2017-Nov-10 04:00N 25°59' W 080°08'0 0.0
2017-Nov-10 03:30N 25°59' W 080°08'0 0.0
2017-Nov-10 03:00N 25°59' W 080°08'0 0.0
2017-Nov-10 02:30N 25°59' W 080°08'0 0.0
2017-Nov-10 01:51N 25°59' W 080°08'0 0.0
2017-Nov-10 01:21N 25°59' W 080°08'0 0.0
2017-Nov-10 00:51N 25°59' W 080°08'0 0.0
2017-Nov-10 00:21N 25°59' W 080°08'0 0.0
2017-Nov-09 23:48N 25°59' W 080°08'0 0.0
2017-Nov-09 23:24N 25°59' W 080°08'0 0.0
2017-Nov-09 22:54N 25°59' W 080°08'0 0.0
2017-Nov-09 22:24N 25°59' W 080°08'0 0.0
2017-Nov-09 21:54N 25°59' W 080°08'0 0.0
2017-Nov-09 21:27N 25°59' W 080°08'0 0.0
2017-Nov-09 20:57N 25°59' W 080°08'0 0.0
2017-Nov-09 20:27N 25°59' W 080°08'  
Track history (hours):
 
Tides and Currents Weather Stations Pressure Air Temp Water Temp Dewpoint Dewpoint Depression Visibility Wind Speed Wind Dir Waves Ship Positions

Callsign 6YRX8 (name unknown)

Last reported at 2017-Nov-19 20:26 UTC. Time now 2017-Nov-22 21:45 UTC.
Position N 25°41' W 080°06'.

Date/timePositionNaut miles runAvg speedWind from/ knotsBaromVisibWave heightAir tempDewpointWater temp
2017-Nov-19 20:26N 25°41' W 080°06'512.4
2017-Nov-19 20:00N 25°46' W 080°08'1 1.1
2017-Nov-19 19:30N 25°45' W 080°08'0 0.0
2017-Nov-19 19:00N 25°45' W 080°08'0 0.0
2017-Nov-19 18:30N 25°45' W 080°08'0 0.0
2017-Nov-19 18:00N 25°45' W 080°08'0 0.0
2017-Nov-19 17:30N 25°45' W 080°08'0 0.0
2017-Nov-19 17:00N 25°45' W 080°08'0 0.8
2017-Nov-19 16:30N 25°46' W 080°09'6 9.6
2017-Nov-19 15:54N 25°51' W 080°06'5 9.8
2017-Nov-19 15:25N 25°56' W 080°08'3 6.1
2017-Nov-19 14:54N 25°59' W 080°08'0 0.2
2017-Nov-19 13:40N 25°59' W 080°08'0 0.0
2017-Nov-19 13:22N 25°59' W 080°08'0 0.0
2017-Nov-19 12:52N 25°59' W 080°08'0 0.0
2017-Nov-19 12:22N 25°59' W 080°08'0 0.0
2017-Nov-19 11:40N 25°59' W 080°08'0 0.0
2017-Nov-19 11:22N 25°59' W 080°08'0 0.0
2017-Nov-19 10:52N 25°59' W 080°08'  
2017-Nov-16 10:28N 34°43' W 076°42'5 0.2
2017-Nov-15 09:30N 34°48' W 076°41'0 0.0
2017-Nov-14 19:00N 34°48' W 076°41'0 0.0
2017-Nov-14 01:30N 34°48' W 076°41'5 0.2
2017-Nov-13 01:58N 34°43' W 076°42'0 0.0
2017-Nov-13 01:28N 34°43' W 076°42'554224.0
2017-Nov-12 23:00N 25°59' W 080°08'0 0.0
2017-Nov-12 22:30N 25°59' W 080°08'0 0.0
2017-Nov-12 21:57N 25°59' W 080°08'0 0.0
2017-Nov-12 21:30N 25°59' W 080°08'0 0.0
2017-Nov-12 21:00N 25°59' W 080°08'0 0.0
2017-Nov-12 20:30N 25°59' W 080°08'1 0.1
2017-Nov-12 02:11N 25°57' W 080°08'1 6.9
2017-Nov-12 01:59N 25°56' W 080°08'0 0.0
2017-Nov-12 01:28N 25°56' W 080°08'3 5.8
2017-Nov-12 01:00N 25°54' W 080°06'612.2
2017-Nov-12 00:30N 25°47' W 080°07'2 4.5
2017-Nov-12 00:00N 25°47' W 080°09'0 0.0
2017-Nov-11 23:30N 25°47' W 080°09'0 0.0
2017-Nov-11 23:00N 25°47' W 080°09'0 0.0
2017-Nov-11 22:30N 25°47' W 080°09'0 0.0
2017-Nov-11 22:00N 25°47' W 080°09'0 0.0
2017-Nov-11 21:30N 25°47' W 080°09'7 6.8
2017-Nov-11 20:29N 25°53' W 080°07'3 5.0
2017-Nov-11 19:56N 25°56' W 080°08'0 0.0
2017-Nov-11 19:14N 25°56' W 080°08'0 0.0
2017-Nov-11 18:56N 25°56' W 080°08'0 0.0
2017-Nov-11 18:29N 25°56' W 080°08'1 1.2
2017-Nov-11 18:00N 25°57' W 080°08'2 3.3
2017-Nov-11 17:21N 25°59' W 080°08'0 0.0
2017-Nov-11 16:54N 25°59' W 080°08'0 0.0
2017-Nov-11 16:24N 25°59' W 080°08'0 0.0
2017-Nov-11 15:54N 25°59' W 080°08'0 0.0
2017-Nov-11 15:24N 25°59' W 080°08'0 0.0
2017-Nov-11 14:57N 25°59' W 080°08'0 0.0
2017-Nov-11 14:27N 25°59' W 080°08'0 0.0
2017-Nov-11 13:54N 25°59' W 080°08'0 0.0
2017-Nov-11 13:27N 25°59' W 080°08'0 0.0
2017-Nov-11 12:57N 25°59' W 080°08'0 0.0
2017-Nov-11 12:30N 25°59' W 080°08'0 0.0
2017-Nov-11 12:00N 25°59' W 080°08'84273.7
2017-Nov-11 00:35N 39°32' W 075°49'19 5.2
2017-Nov-10 21:00N 39°23' W 075°28'8381661.0
2017-Nov-10 20:30N 25°59' W 080°08'0 0.0
2017-Nov-10 20:00N 25°59' W 080°08'0 0.0
2017-Nov-10 19:27N 25°59' W 080°08'0 0.0
2017-Nov-10 18:57N 25°59' W 080°08'0 0.0
2017-Nov-10 18:30N 25°59' W 080°08'0 0.0
2017-Nov-10 18:00N 25°59' W 080°08'0 0.0
2017-Nov-10 17:30N 25°59' W 080°08'0 0.0
2017-Nov-10 17:00N 25°59' W 080°08'0 0.0
2017-Nov-10 16:30N 25°59' W 080°08'0 0.0
2017-Nov-10 16:00N 25°59' W 080°08'0 0.0
2017-Nov-10 15:21N 25°59' W 080°08'0 0.0
2017-Nov-10 14:51N 25°59' W 080°08'0 0.0
2017-Nov-10 14:21N 25°59' W 080°08'0 0.0
2017-Nov-10 13:51N 25°59' W 080°08'1 1.1
2017-Nov-10 13:21N 25°58' W 080°08'1 1.2
2017-Nov-10 12:54N 25°59' W 080°08'0 0.0
2017-Nov-10 12:24N 25°59' W 080°08'0 0.0
2017-Nov-10 11:54N 25°59' W 080°08'0 0.0
2017-Nov-10 11:27N 25°59' W 080°08'0 0.0
2017-Nov-10 10:57N 25°59' W 080°08'0 0.0
2017-Nov-10 10:24N 25°59' W 080°08'0 0.0
2017-Nov-10 09:57N 25°59' W 080°08'0 0.0
2017-Nov-10 09:27N 25°59' W 080°08'0 0.0
2017-Nov-10 08:57N 25°59' W 080°08'0 0.0
2017-Nov-10 08:27N 25°59' W 080°08'0 0.0
2017-Nov-10 08:00N 25°59' W 080°08'0 0.0
2017-Nov-10 07:30N 25°59' W 080°08'0 0.0
2017-Nov-10 07:00N 25°59' W 080°08'0 0.0
2017-Nov-10 06:30N 25°59' W 080°08'0 0.0
2017-Nov-10 06:00N 25°59' W 080°08'0 0.0
2017-Nov-10 05:30N 25°59' W 080°08'0 0.0
2017-Nov-10 05:00N 25°59' W 080°08'0 0.0
2017-Nov-10 04:30N 25°59' W 080°08'0 0.0
2017-Nov-10 04:00N 25°59' W 080°08'0 0.0
2017-Nov-10 03:30N 25°59' W 080°08'0 0.0
2017-Nov-10 03:00N 25°59' W 080°08'0 0.0
2017-Nov-10 02:30N 25°59' W 080°08'0 0.0
2017-Nov-10 01:51N 25°59' W 080°08'0 0.0
2017-Nov-10 01:21N 25°59' W 080°08'0 0.0
2017-Nov-10 00:51N 25°59' W 080°08'0 0.0
2017-Nov-10 00:21N 25°59' W 080°08'0 0.0
2017-Nov-09 23:48N 25°59' W 080°08'0 0.0
2017-Nov-09 23:24N 25°59' W 080°08'0 0.0
2017-Nov-09 22:54N 25°59' W 080°08'0 0.0
2017-Nov-09 22:24N 25°59' W 080°08'0 0.0
2017-Nov-09 21:54N 25°59' W 080°08'0 0.0
2017-Nov-09 21:27N 25°59' W 080°08'0 0.0
2017-Nov-09 20:57N 25°59' W 080°08'0 0.0
2017-Nov-09 20:27N 25°59' W 080°08'  

Dump ship's entire track history